Time;durP1;ratioP1;P1;durP2;ratioP2;P2;SDS_P1;SDS_P2;PMS_P1;PMS_P2;Temp;Humidity;BMP_temperature;BMP_pressure;BME280_temperature;BME280_humidity;BME280_pressure;Samples;Min_cycle;Max_cycle;Signal;HPM_P1;HPM_P2
2022/07/10 00:01:34;;;;;;;5.17;4.53;;;;;;;22.14;67.30;99197.63;30736359;28;20059;-80
2022/07/10 00:16:36;;;;;;;6.40;4.87;;;;;;;22.09;68.67;99202.69;30721910;28;20055;-80
2022/07/10 00:31:40;;;;;;;11.90;5.43;;;;;;;22.10;69.89;99198.66;30742847;28;20460;-80
2022/07/10 00:46:42;;;;;;;8.77;5.88;;;;;;;22.13;70.57;99207.19;30770213;28;20040;-80
2022/07/10 01:01:44;;;;;;;14.50;6.70;;;;;;;22.14;70.90;99225.25;30723360;28;20058;-80
2022/07/10 01:16:47;;;;;;;10.43;5.63;;;;;;;22.15;70.95;99221.97;30750971;28;20442;-80
2022/07/10 01:31:50;;;;;;;6.22;5.63;;;;;;;21.97;72.11;99192.97;30774609;28;20067;-79
2022/07/10 01:46:57;;;;;;;7.85;6.07;;;;;;;21.65;74.03;99189.28;30722288;28;20051;-80
2022/07/10 02:02:00;;;;;;;10.57;5.72;;;;;;;21.73;75.02;99204.75;30709270;28;20056;-80
2022/07/10 02:17:03;;;;;;;7.77;5.93;;;;;;;21.86;74.90;99184.81;30741822;28;20059;-80
2022/07/10 02:32:05;;;;;;;;;;;;;;;21.91;77.05;99181.25;30714283;28;20060;-82
2022/07/10 02:47:07;;;;;;;11.32;6.45;;;;;;;21.88;76.39;99160.19;30694683;28;19922;-79
2022/07/10 03:02:09;;;;;;;11.45;6.78;;;;;;;21.88;77.49;99162.94;30710617;28;20065;-81
2022/07/10 03:17:11;;;;;;;8.87;5.83;;;;;;;21.94;77.77;99151.84;30724799;28;20497;-80
2022/07/10 03:32:14;;;;;;;12.65;6.57;;;;;;;22.20;78.23;99138.25;30761484;28;20055;-81
2022/07/10 03:47:16;;;;;;;;;;;;;;;22.58;77.06;99097.50;30750518;28;20047;-81
2022/07/10 04:02:17;;;;;;;9.25;6.35;;;;;;;22.46;77.87;99079.56;30733225;28;19926;-81
2022/07/10 04:17:20;;;;;;;7.77;5.97;;;;;;;22.25;78.09;99109.03;30744419;28;20047;-80
2022/07/10 04:32:24;;;;;;;7.23;5.93;;;;;;;22.92;76.73;99094.25;30733843;28;20453;-81
2022/07/10 04:47:26;;;;;;;9.38;6.93;;;;;;;23.98;72.82;99087.59;30718537;28;20052;-82
2022/07/10 05:02:27;;;;;;;13.50;6.80;;;;;;;24.57;70.02;99101.97;30718036;28;20043;-82
2022/07/10 05:17:31;;;;;;;11.82;7.22;;;;;;;25.42;65.40;99113.31;30759271;28;20062;-82
2022/07/10 05:32:44;;;;;;;12.38;8.70;;;;;;;25.99;62.63;99095.88;30748759;28;20059;-81
2022/07/10 05:47:46;;;;;;;11.85;7.07;;;;;;;26.29;61.79;99082.13;30699375;28;20047;-81
2022/07/10 06:02:48;;;;;;;9.55;6.10;;;;;;;26.81;60.30;99075.22;30710669;28;20051;-80
2022/07/10 06:17:57;;;;;;;10.73;6.22;;;;;;;25.85;63.38;99073.03;30741880;28;20050;-81
2022/07/10 06:32:59;;;;;;;12.63;7.70;;;;;;;25.49;64.39;99084.13;30717513;28;20059;-82
2022/07/10 06:48:01;;;;;;;10.55;6.60;;;;;;;25.92;64.46;99166.88;30681622;28;20051;-82
2022/07/10 07:03:05;;;;;;;10.60;6.50;;;;;;;25.21;68.26;99189.63;30735558;28;20127;-82
2022/07/10 07:18:07;;;;;;;14.55;8.68;;;;;;;24.79;70.05;99170.13;30701343;28;20047;-83
2022/07/10 07:33:10;;;;;;;23.20;11.63;;;;;;;25.48;72.40;99147.28;30709263;28;20163;-82
2022/07/10 07:48:12;;;;;;;30.65;14.02;;;;;;;26.35;72.15;99079.19;30710804;28;20059;-81
2022/07/10 08:03:14;;;;;;;27.60;12.82;;;;;;;26.73;66.07;99051.44;30709830;28;20492;-83
2022/07/10 08:18:16;;;;;;;19.83;11.10;;;;;;;28.16;59.06;99030.19;30720125;28;20075;-82
2022/07/10 08:33:18;;;;;;;15.88;10.77;;;;;;;28.58;55.57;99032.41;30727320;28;20051;-82
2022/07/10 08:48:23;;;;;;;11.05;7.30;;;;;;;28.79;54.37;99024.44;30723438;28;20062;-80
2022/07/10 09:03:25;;;;;;;12.15;6.88;;;;;;;27.89;55.84;99056.34;30732393;28;20069;-79
2022/07/10 09:18:28;;;;;;;7.35;5.40;;;;;;;28.22;50.09;99068.34;30707824;28;20924;-77
2022/07/10 09:33:33;;;;;;;10.70;6.80;;;;;;;28.76;50.64;99089.78;30692050;28;20573;-79
2022/07/10 09:48:35;;;;;;;10.63;6.35;;;;;;;28.57;51.84;99069.28;30753453;28;20055;-80
2022/07/10 10:03:39;;;;;;;10.05;6.57;;;;;;;29.29;50.85;99040.41;30688870;28;20585;-84
2022/07/10 10:34:04;;;;;;;11.98;6.88;;;;;;;31.11;45.95;99037.28;30715535;28;20391;-83
2022/07/10 10:49:07;;;;;;;11.15;6.13;;;;;;;32.29;42.54;99034.69;30700998;29;20121;-84
2022/07/10 11:04:10;;;;;;;9.35;6.75;;;;;;;31.17;42.63;99024.50;30720693;28;20050;-83
2022/07/10 11:19:12;;;;;;;11.90;9.20;;;;;;;30.95;42.03;99022.03;30741316;28;20055;-83
2022/07/10 11:34:14;;;;;;;13.88;10.95;;;;;;;30.79;43.33;99011.09;30727164;28;20143;-84
2022/07/10 11:49:17;;;;;;;16.20;12.57;;;;;;;30.93;43.24;99010.72;30712708;28;20062;-84
2022/07/10 12:04:24;;;;;;;22.33;13.15;;;;;;;31.10;41.63;99002.19;30714936;28;20428;-84
2022/07/10 12:19:30;;;;;;;27.95;19.73;;;;;;;30.47;40.82;98992.53;30719719;28;20047;-81
2022/07/10 12:34:43;;;;;;;23.52;11.95;;;;;;;29.60;41.93;98990.53;30704397;28;20051;-79
2022/07/10 12:49:55;;;;;;;19.40;10.23;;;;;;;29.41;41.95;98980.69;30734512;28;20060;-82
2022/07/10 13:04:58;;;;;;;16.20;11.23;;;;;;;29.61;43.65;98969.63;30710536;28;20413;-85
2022/07/10 13:20:00;;;;;;;22.48;12.38;;;;;;;29.14;45.29;98958.19;30762831;28;20507;-85
2022/07/10 13:35:02;;;;;;;16.42;11.13;;;;;;;29.36;45.31;98956.47;30717732;28;20104;-83
2022/07/10 13:50:04;;;;;;;16.77;12.10;;;;;;;29.38;45.77;98967.81;30710792;28;20110;-84
2022/07/10 14:05:09;;;;;;;20.58;11.23;;;;;;;29.47;45.56;98967.19;30689677;29;20138;-85
2022/07/10 14:20:12;;;;;;;15.60;10.98;;;;;;;29.15;45.97;98947.78;30716463;29;20055;-84
2022/07/10 14:35:15;;;;;;;17.52;11.95;;;;;;;28.91;46.94;98948.56;30730377;28;20063;-83
2022/07/10 14:50:16;;;;;;;20.55;12.95;;;;;;;28.99;46.37;98926.91;30716470;28;20066;-82
2022/07/10 15:05:19;;;;;;;23.25;12.18;;;;;;;28.97;46.74;98904.38;30711384;28;20054;-84
2022/07/10 15:20:21;;;;;;;18.80;10.50;;;;;;;28.76;46.95;98908.28;30730643;28;20493;-84
2022/07/10 15:35:23;;;;;;;13.43;6.90;;;;;;;28.47;44.03;98949.09;30711383;28;20051;-84
2022/07/10 15:50:25;;;;;;;15.40;8.55;;;;;;;26.66;52.80;98966.66;30717617;28;20051;-83
2022/07/10 16:05:34;;;;;;;10.75;6.95;;;;;;;24.48;72.10;99033.84;30680923;28;20054;-83
2022/07/10 16:20:38;;;;;;;13.05;6.57;;;;;;;21.61;91.34;99036.94;30724538;28;20055;-82
2022/07/10 16:35:40;;;;;;;13.87;6.70;;;;;;;21.48;100.00;99037.59;30751838;28;20055;-81
2022/07/10 16:50:42;;;;;;;14.23;7.65;;;;;;;21.65;100.00;99062.25;30686368;28;20055;-84
2022/07/10 17:05:44;;;;;;;10.07;7.20;;;;;;;21.61;100.00;99106.72;30691794;28;20051;-85
2022/07/10 17:20:46;;;;;;;15.27;6.93;;;;;;;21.46;100.00;99119.44;30692980;29;20055;-84
2022/07/10 17:35:48;;;;;;;12.20;7.43;;;;;;;21.57;100.00;99097.97;30680605;28;20059;-84
2022/07/10 17:50:50;;;;;;;10.68;7.65;;;;;;;21.59;100.00;99065.06;30716697;28;20063;-86
2022/07/10 18:05:52;;;;;;;10.40;7.17;;;;;;;21.42;100.00;99065.25;30684696;29;20071;-85
2022/07/10 18:20:54;;;;;;;12.37;8.13;;;;;;;21.17;100.00;99083.03;30701017;29;20059;-81
2022/07/10 18:35:59;;;;;;;11.88;7.82;;;;;;;21.12;100.00;99097.63;30704878;28;20055;-81
2022/07/10 18:51:01;;;;;;;24.30;13.50;;;;;;;21.05;100.00;99109.22;30711016;28;20080;-79
2022/07/10 19:06:04;;;;;;;10.18;7.97;;;;;;;21.06;100.00;99116.22;30703506;28;21887;-78
2022/07/10 19:21:06;;;;;;;13.73;8.30;;;;;;;21.18;100.00;99125.16;30715486;28;20055;-79
2022/07/10 19:36:11;;;;;;;14.55;8.98;;;;;;;21.19;100.00;99146.75;30701648;28;20051;-79
2022/07/10 19:51:14;;;;;;;16.15;8.38;;;;;;;21.49;100.00;99154.31;30710210;28;20413;-78
2022/07/10 20:06:16;;;;;;;12.93;8.10;;;;;;;21.43;100.00;99160.63;30726696;28;20528;-78
2022/07/10 20:21:18;;;;;;;11.90;7.00;;;;;;;21.09;100.00;99148.31;30697597;28;20056;-78
2022/07/10 20:51:41;;;;;;;9.32;5.72;;;;;;;20.69;100.00;99125.03;30711116;28;20529;-79
2022/07/10 21:06:43;;;;;;;7.82;4.68;;;;;;;20.61;100.00;99111.03;30717884;28;20417;-79
2022/07/10 21:21:45;;;;;;;23.67;13.27;;;;;;;20.50;100.00;99116.63;30717767;28;20055;-79
2022/07/10 21:36:47;;;;;;;12.18;5.82;;;;;;;20.41;100.00;99075.56;30720812;28;20059;-76
2022/07/10 21:51:49;;;;;;;10.23;5.63;;;;;;;20.45;100.00;99073.28;30726911;28;20054;-79
2022/07/10 22:06:52;;;;;;;8.35;5.75;;;;;;;20.70;100.00;99063.84;30746192;28;20053;-79
2022/07/10 22:21:54;;;;;;;;;;;;;;;20.57;100.00;99055.41;30733470;28;20061;-80
2022/07/10 22:36:56;;;;;;;12.82;7.55;;;;;;;20.37;100.00;99075.09;30736874;28;19932;-79
2022/07/10 22:51:58;;;;;;;13.82;9.00;;;;;;;20.41;100.00;99048.00;30698126;28;20055;-80
2022/07/10 23:07:00;;;;;;;11.48;7.75;;;;;;;20.06;100.00;99057.69;30714795;28;20075;-79
2022/07/10 23:22:04;;;;;;;16.52;7.95;;;;;;;19.93;100.00;99049.22;30735659;28;20074;-79
2022/07/10 23:37:06;;;;;;;10.53;7.97;;;;;;;19.89;100.00;99057.00;30724504;28;20054;-79
2022/07/10 23:52:08;;;;;;;13.23;8.33;;;;;;;20.07;100.00;99069.47;30718335;28;20098;-79
